In Rescue
 
Open Full Screen Window  High Contrast Mode
Wind Gusting 00 knots
06
May 20, 2019 2:24 PM CDT
Weather Information
Wind Direction
  020 °
Wind Speed
  06 kt (7 mph)
Wind Gust
  00 kt (0 mph)
Altimeter
30.14 in
Visibility
10 SM
Temperature
16° C
61° F
Dewpoint
04° C
39° F
Humidity
45%
1hr Rain Fall
00.00 in.
24hr Rain Fall
00.00 in.
Sky Condition
Clear
VFR

METAR KGYL 201924Z AUTO 02006KT 10SM CLR 16/04 A3014 RMK AO2 T01570043

FAA Disclaimer: The data displayed is for advisory purposes only and is not to be used for flight planning or operations.